Time;durP1;ratioP1;P1;durP2;ratioP2;P2;SDS_P1;SDS_P2;PMS_P1;PMS_P2;Temp;Humidity;BMP_temperature;BMP_pressure;BME280_temperature;BME280_humidity;BME280_pressure;Samples;Min_cycle;Max_cycle;Signal;HPM_P1;HPM_P2
2021/08/13 00:00:58;;;;;;;11.65;8.40;;;20.60;99.90;;;;;;2631188;54;20209;-81
2021/08/13 00:03:27;;;;;;;11.75;8.90;;;20.40;99.90;;;;;;2631111;47;20140;-80
2021/08/13 00:05:56;;;;;;;12.10;8.27;;;20.30;99.90;;;;;;2631061;54;20172;-80
2021/08/13 00:08:25;;;;;;;11.13;8.63;;;20.30;99.90;;;;;;2631388;54;20157;-80
2021/08/13 00:10:54;;;;;;;11.13;8.93;;;20.40;99.90;;;;;;2631248;47;20161;-82
2021/08/13 00:13:24;;;;;;;11.93;8.80;;;20.30;99.90;;;;;;2631273;46;20553;-82
2021/08/13 00:15:53;;;;;;;9.88;8.73;;;20.20;99.90;;;;;;2636523;39;20378;-81
2021/08/13 00:18:22;;;;;;;12.95;8.73;;;20.10;99.90;;;;;;2638236;39;20900;-81
2021/08/13 00:20:51;;;;;;;11.23;8.95;;;19.90;99.90;;;;;;2631087;46;20168;-81
2021/08/13 00:23:20;;;;;;;12.80;9.65;;;19.80;99.90;;;;;;2631298;47;20141;-81
2021/08/13 00:25:49;;;;;;;13.90;8.80;;;19.80;99.90;;;;;;2636171;39;20824;-81
2021/08/13 00:28:18;;;;;;;13.50;9.93;;;19.90;99.90;;;;;;2631310;54;20188;-81
2021/08/13 00:30:49;;;;;;;11.73;9.25;;;19.80;99.90;;;;;;2631122;54;20173;-81
2021/08/13 00:33:18;;;;;;;13.40;9.27;;;19.80;99.90;;;;;;2631097;54;20955;-81
2021/08/13 00:35:48;;;;;;;9.80;8.75;;;19.70;99.90;;;;;;2630976;47;20137;-80
2021/08/13 00:38:17;;;;;;;11.05;9.82;;;19.60;99.90;;;;;;2635114;39;20875;-81
2021/08/13 00:40:47;;;;;;;12.18;10.30;;;19.70;99.90;;;;;;2630943;54;20165;-80
2021/08/13 00:43:17;;;;;;;11.23;8.93;;;19.70;99.90;;;;;;2636342;39;20390;-80
2021/08/13 00:45:46;;;;;;;12.18;9.68;;;19.70;99.90;;;;;;2630852;54;20162;-82
2021/08/13 00:48:19;;;;;;;11.55;8.52;;;19.90;99.90;;;;;;2631020;54;20153;-81
2021/08/13 00:50:51;;;;;;;11.40;9.25;;;20.00;99.90;;;;;;2631109;54;20212;-80
2021/08/13 00:53:21;;;;;;;9.50;8.52;;;19.90;99.90;;;;;;2631085;54;20140;-82
2021/08/13 00:55:53;;;;;;;10.27;9.27;;;19.70;99.90;;;;;;2630863;54;20135;-81
2021/08/13 00:58:36;;;;;;;12.25;10.00;;;19.60;99.90;;;;;;2631022;54;20141;-80
2021/08/13 01:01:24;;;;;;;10.77;9.68;;;19.70;99.90;;;;;;2631116;46;20180;-80
2021/08/13 01:03:54;;;;;;;10.30;8.98;;;19.70;99.90;;;;;;2630996;54;20284;-81
2021/08/13 01:06:24;;;;;;;10.35;9.27;;;19.60;99.90;;;;;;2630830;47;20134;-81
2021/08/13 01:08:54;;;;;;;11.60;8.77;;;19.50;99.90;;;;;;2631080;46;20176;-80
2021/08/13 01:11:35;;;;;;;10.35;8.90;;;19.40;99.90;;;;;;2630979;46;20218;-79
2021/08/13 01:14:09;;;;;;;11.48;9.27;;;19.30;99.90;;;;;;2630924;47;20153;-80
2021/08/13 01:16:46;;;;;;;13.63;9.00;;;19.10;99.90;;;;;;2630854;54;20155;-81
2021/08/13 01:19:23;;;;;;;10.27;9.25;;;19.30;99.90;;;;;;2630923;54;20181;-81
2021/08/13 01:21:56;;;;;;;10.30;9.00;;;19.30;99.90;;;;;;2631075;47;20224;-80
2021/08/13 01:24:30;;;;;;;9.88;8.98;;;19.30;99.90;;;;;;2630979;54;20133;-80
2021/08/13 01:27:04;;;;;;;11.30;9.32;;;19.60;99.90;;;;;;2631012;47;20161;-81
2021/08/13 01:29:44;;;;;;;10.23;8.45;;;19.60;99.90;;;;;;2630963;54;20167;-81
2021/08/13 01:32:35;;;;;;;13.93;9.45;;;19.40;99.90;;;;;;2630667;54;20177;-81
2021/08/13 01:35:09;;;;;;;11.80;10.05;;;19.30;99.90;;;;;;2630768;54;20165;-80
2021/08/13 01:37:43;;;;;;;9.80;8.80;;;19.10;99.90;;;;;;2630871;54;20129;-81
2021/08/13 01:40:16;;;;;;;15.00;10.77;;;18.90;99.90;;;;;;2630886;47;20138;-81
2021/08/13 01:42:48;;;;;;;10.93;8.18;;;19.00;99.90;;;;;;2630827;47;20138;-80
2021/08/13 01:45:24;;;;;;;11.40;9.55;;;19.20;99.90;;;;;;2630677;47;20142;-81
2021/08/13 01:47:57;;;;;;;10.75;8.73;;;19.10;99.90;;;;;;2631028;54;20186;-82
2021/08/13 01:50:28;;;;;;;9.93;8.77;;;19.30;99.90;;;;;;2630953;54;20140;-81
2021/08/13 01:53:02;;;;;;;11.70;8.60;;;19.50;99.90;;;;;;2630831;47;20129;-81
2021/08/13 01:55:32;;;;;;;9.98;8.15;;;19.60;99.90;;;;;;2630694;54;20205;-82
2021/08/13 01:58:02;;;;;;;8.63;7.78;;;19.70;99.90;;;;;;2630662;47;20293;-81
2021/08/13 02:00:31;;;;;;;9.90;8.27;;;19.70;99.90;;;;;;2630723;47;20144;-80
2021/08/13 02:03:03;;;;;;;11.65;8.30;;;19.70;99.90;;;;;;2630671;54;20253;-81
2021/08/13 02:05:37;;;;;;;8.75;7.95;;;19.70;99.90;;;;;;2630676;54;20137;-81
2021/08/13 02:08:10;;;;;;;10.98;8.52;;;19.80;99.90;;;;;;2630771;54;20160;-82
2021/08/13 02:10:49;;;;;;;9.73;8.82;;;19.80;99.90;;;;;;2630759;54;20198;-82
2021/08/13 02:13:22;;;;;;;10.57;8.38;;;19.60;99.90;;;;;;2630773;47;20177;-80
2021/08/13 02:16:00;;;;;;;12.48;9.77;;;19.40;99.90;;;;;;2630661;47;20137;-81
2021/08/13 02:18:32;;;;;;;9.85;8.80;;;19.50;99.90;;;;;;2630794;47;20130;-80
2021/08/13 02:21:06;;;;;;;9.32;8.43;;;19.50;99.90;;;;;;2630678;54;20149;-81
2021/08/13 02:23:36;;;;;;;9.73;8.18;;;19.70;99.90;;;;;;2630665;54;20129;-81
2021/08/13 02:26:07;;;;;;;10.02;9.00;;;19.70;99.90;;;;;;2630502;54;20133;-80
2021/08/13 02:28:38;;;;;;;11.77;9.80;;;19.70;99.90;;;;;;2630743;47;20133;-81
2021/08/13 02:31:07;;;;;;;11.52;8.38;;;19.70;99.90;;;;;;2632525;46;20176;-81
2021/08/13 02:33:39;;;;;;;9.00;7.40;;;19.70;99.90;;;;;;2629472;47;20169;-82
2021/08/13 02:36:12;;;;;;;11.50;9.68;;;19.50;99.90;;;;;;2630374;47;20159;-82
2021/08/13 02:38:49;;;;;;;10.30;8.27;;;19.60;99.90;;;;;;2630609;54;20149;-81
2021/08/13 02:41:19;;;;;;;11.25;8.68;;;19.50;99.90;;;;;;2630648;54;20939;-81
2021/08/13 02:43:54;;;;;;;11.52;8.98;;;19.20;99.90;;;;;;2630403;54;20221;-80
2021/08/13 02:46:23;;;;;;;10.10;9.10;;;19.20;99.90;;;;;;2630078;54;20183;-81
2021/08/13 02:48:59;;;;;;;9.60;8.65;;;19.30;99.90;;;;;;2630633;54;20237;-81
2021/08/13 02:51:32;;;;;;;9.60;8.40;;;19.50;99.90;;;;;;2630469;47;20177;-80
2021/08/13 02:54:02;;;;;;;10.02;8.55;;;19.50;99.90;;;;;;2630556;54;20145;-81
2021/08/13 02:56:37;;;;;;;9.75;8.88;;;19.40;99.90;;;;;;2630548;47;20149;-81
2021/08/13 02:59:11;;;;;;;9.10;8.20;;;19.40;99.90;;;;;;2630601;47;20126;-81
2021/08/13 03:01:42;;;;;;;10.98;9.77;;;19.40;99.90;;;;;;2630427;54;20205;-81
2021/08/13 03:04:14;;;;;;;11.48;9.27;;;19.00;99.90;;;;;;2630542;47;20926;-81
2021/08/13 03:06:44;;;;;;;10.43;9.35;;;18.80;99.90;;;;;;2630792;47;20146;-80
2021/08/13 03:09:14;;;;;;;12.15;10.15;;;18.40;99.90;;;;;;2632567;46;20169;-80
2021/08/13 03:11:44;;;;;;;9.77;8.68;;;18.40;99.90;;;;;;2630453;47;20189;-80
2021/08/13 03:14:19;;;;;;;11.98;10.40;;;18.10;99.90;;;;;;2630394;54;20133;-81
2021/08/13 03:16:48;;;;;;;11.25;10.13;;;17.90;99.90;;;;;;2631312;54;20158;-80
2021/08/13 03:19:21;;;;;;;13.68;10.20;;;17.90;99.90;;;;;;2631359;46;20133;-81
2021/08/13 03:21:52;;;;;;;10.02;8.88;;;18.10;99.90;;;;;;2631345;54;20145;-81
2021/08/13 03:24:22;;;;;;;12.40;10.02;;;18.50;99.90;;;;;;2631314;54;20155;-81
2021/08/13 03:26:51;;;;;;;18.77;9.52;;;18.60;99.90;;;;;;2631281;54;20129;-81
2021/08/13 03:29:23;;;;;;;11.38;10.20;;;18.70;99.90;;;;;;2631229;47;20149;-81
2021/08/13 03:32:00;;;;;;;13.57;10.20;;;18.70;99.90;;;;;;2631293;47;20169;-80
2021/08/13 03:34:31;;;;;;;11.95;10.27;;;18.80;99.90;;;;;;2631151;47;20125;-81
2021/08/13 03:37:01;;;;;;;10.95;8.10;;;19.10;99.90;;;;;;2631334;54;20137;-80
2021/08/13 03:39:33;;;;;;;9.95;9.02;;;19.30;99.90;;;;;;2631287;47;21072;-81
2021/08/13 03:42:03;;;;;;;10.68;9.68;;;19.10;99.90;;;;;;2631235;54;20153;-81
2021/08/13 03:44:32;;;;;;;9.45;8.35;;;19.00;99.90;;;;;;2631066;54;20145;-81
2021/08/13 03:47:02;;;;;;;13.50;9.75;;;19.00;99.90;;;;;;2631301;47;20194;-80
2021/08/13 03:49:33;;;;;;;12.05;9.80;;;19.00;99.90;;;;;;2631265;47;20148;-80
2021/08/13 03:52:02;;;;;;;10.02;9.02;;;18.90;99.90;;;;;;2631236;47;20229;-80
2021/08/13 03:54:30;;;;;;;9.73;8.73;;;19.00;99.90;;;;;;2631110;54;20137;-81
2021/08/13 03:57:00;;;;;;;12.77;9.20;;;19.00;99.90;;;;;;2631299;54;20185;-80
2021/08/13 03:59:31;;;;;;;9.60;8.45;;;19.10;99.90;;;;;;2631180;54;20164;-81
2021/08/13 04:02:01;;;;;;;10.95;9.68;;;19.00;99.90;;;;;;2631144;54;20161;-80
2021/08/13 04:04:30;;;;;;;13.05;9.15;;;18.90;99.90;;;;;;2630957;54;21066;-80
2021/08/13 04:07:00;;;;;;;10.57;9.48;;;18.40;99.90;;;;;;2631111;47;20129;-79
2021/08/13 04:09:29;;;;;;;12.68;9.05;;;18.20;99.90;;;;;;2631139;54;20141;-81
2021/08/13 04:11:59;;;;;;;13.82;10.55;;;18.00;99.90;;;;;;2634399;39;20902;-81
2021/08/13 04:14:32;;;;;;;15.75;9.80;;;17.80;99.90;;;;;;2631041;54;20158;-81
2021/08/13 04:17:02;;;;;;;16.50;10.45;;;17.60;99.90;;;;;;2631180;54;20140;-81
2021/08/13 04:19:32;;;;;;;10.63;9.45;;;17.50;99.90;;;;;;2631070;46;20856;-80
2021/08/13 04:22:05;;;;;;;11.20;9.75;;;17.50;99.90;;;;;;2631041;54;20169;-80
2021/08/13 04:24:37;;;;;;;12.95;11.60;;;17.40;99.90;;;;;;2630898;54;20145;-80
2021/08/13 04:27:07;;;;;;;9.77;8.77;;;17.50;99.90;;;;;;2630956;47;20168;-81
2021/08/13 04:29:35;;;;;;;10.65;9.65;;;17.60;99.90;;;;;;2631071;54;20150;-81
2021/08/13 04:32:05;;;;;;;13.27;10.63;;;17.80;99.90;;;;;;2631071;54;20157;-82
2021/08/13 04:34:34;;;;;;;13.82;10.85;;;17.50;99.90;;;;;;2630908;47;20156;-79
2021/08/13 04:37:05;;;;;;;11.07;9.98;;;17.40;99.90;;;;;;2631055;47;20197;-81
2021/08/13 04:39:34;;;;;;;12.23;10.60;;;17.40;99.90;;;;;;2630877;54;20149;-81
2021/08/13 04:42:03;;;;;;;15.95;12.43;;;17.20;99.90;;;;;;2631002;47;20196;-81
2021/08/13 04:44:32;;;;;;;11.07;9.98;;;17.20;99.90;;;;;;2630911;46;20150;-81
2021/08/13 04:47:02;;;;;;;15.65;12.57;;;17.30;99.90;;;;;;2630958;54;20276;-80
2021/08/13 04:49:32;;;;;;;15.35;12.02;;;17.60;99.90;;;;;;2630926;47;20156;-82
2021/08/13 04:52:01;;;;;;;13.40;11.18;;;17.70;99.90;;;;;;2631160;47;20165;-82
2021/08/13 04:54:32;;;;;;;13.55;11.13;;;17.60;99.90;;;;;;2630800;47;20209;-82
2021/08/13 04:57:03;;;;;;;18.15;12.20;;;17.60;99.90;;;;;;2630906;54;20161;-80
2021/08/13 04:59:31;;;;;;;11.52;10.45;;;17.70;99.90;;;;;;2630939;47;20168;-81
2021/08/13 05:02:06;;;;;;;12.30;11.00;;;17.80;99.90;;;;;;2630847;47;20192;-79
2021/08/13 05:04:36;;;;;;;10.55;9.45;;;17.80;99.90;;;;;;2630768;54;20157;-81
2021/08/13 05:07:05;;;;;;;11.68;10.57;;;17.70;99.90;;;;;;2630860;47;20137;-81
2021/08/13 05:09:36;;;;;;;12.85;10.30;;;17.80;99.90;;;;;;2630888;54;20174;-80
2021/08/13 05:12:06;;;;;;;12.23;9.65;;;17.90;99.90;;;;;;2630822;47;20181;-81
2021/08/13 05:14:35;;;;;;;16.65;10.45;;;17.70;99.90;;;;;;2630849;54;20153;-81
2021/08/13 05:17:04;;;;;;;10.88;9.80;;;17.80;99.90;;;;;;2631116;47;20841;-81
2021/08/13 05:19:33;;;;;;;9.20;8.40;;;17.80;99.90;;;;;;2630848;47;20153;-81
2021/08/13 05:22:03;;;;;;;9.10;8.18;;;18.00;99.90;;;;;;2630813;47;20168;-80
2021/08/13 05:24:33;;;;;;;10.27;9.27;;;17.90;99.90;;;;;;2630810;47;20133;-80
2021/08/13 05:27:03;;;;;;;10.70;8.88;;;17.90;99.90;;;;;;2630880;54;20137;-80
2021/08/13 05:29:32;;;;;;;10.15;8.52;;;17.90;99.90;;;;;;2630943;47;20175;-81
2021/08/13 05:32:01;;;;;;;9.77;8.88;;;17.90;99.90;;;;;;2632152;39;20905;-80
2021/08/13 05:34:30;;;;;;;9.48;8.25;;;17.80;99.90;;;;;;2644093;31;20925;-81
2021/08/13 05:36:59;;;;;;;9.93;9.00;;;17.90;99.90;;;;;;2630778;47;20133;-80
2021/08/13 05:39:28;;;;;;;10.63;9.63;;;18.10;99.90;;;;;;2633859;46;20616;-80
2021/08/13 05:41:58;;;;;;;11.07;8.43;;;18.30;99.90;;;;;;2630717;47;20208;-80
2021/08/13 05:44:28;;;;;;;15.55;8.88;;;18.10;99.90;;;;;;2630581;54;20176;-79
2021/08/13 05:46:57;;;;;;;13.75;9.52;;;18.20;99.90;;;;;;2630748;47;20154;-80
2021/08/13 05:49:26;;;;;;;13.18;9.75;;;18.50;99.90;;;;;;2630994;47;20133;-80
2021/08/13 05:51:56;;;;;;;11.32;9.38;;;18.50;99.90;;;;;;2630764;54;20176;-80
2021/08/13 05:54:25;;;;;;;10.32;8.98;;;18.50;99.90;;;;;;2630560;54;20133;-80
2021/08/13 05:56:55;;;;;;;13.45;8.75;;;18.50;99.90;;;;;;2630574;47;20149;-81
2021/08/13 05:59:24;;;;;;;8.90;8.00;;;18.60;99.90;;;;;;2630829;47;20156;-79
2021/08/13 06:01:54;;;;;;;11.98;8.02;;;18.80;99.90;;;;;;2630724;47;20178;-81
2021/08/13 06:04:23;;;;;;;10.80;7.50;;;18.80;99.90;;;;;;2630594;47;20130;-80
2021/08/13 06:06:52;;;;;;;11.85;8.20;;;18.80;99.90;;;;;;2630592;47;20173;-80
2021/08/13 06:09:21;;;;;;;9.90;8.88;;;19.00;99.90;;;;;;2630569;47;20164;-79
2021/08/13 06:11:51;;;;;;;11.23;8.60;;;19.00;99.90;;;;;;2630668;54;20192;-80
2021/08/13 06:14:23;;;;;;;8.93;7.78;;;19.00;99.90;;;;;;2630507;47;20125;-77
2021/08/13 06:20:55;;;;;;;8.30;7.50;;;19.40;99.90;;;;;;2630476;47;20134;-77
2021/08/13 06:23:28;;;;;;;8.38;7.43;;;19.70;99.90;;;;;;2629728;54;20149;-77
2021/08/13 06:26:12;;;;;;;12.63;8.10;;;19.90;99.90;;;;;;2630320;54;20188;-77
2021/08/13 06:28:48;;;;;;;14.35;8.25;;;20.00;99.90;;;;;;2630520;54;20133;-78
2021/08/13 06:31:21;;;;;;;11.02;8.55;;;20.40;99.90;;;;;;2630450;54;20165;-77
2021/08/13 06:34:03;;;;;;;19.00;8.45;;;20.40;99.90;;;;;;2630553;54;20145;-78
2021/08/13 06:36:40;;;;;;;10.32;6.70;;;20.50;99.90;;;;;;2629726;47;20149;-78
2021/08/13 06:39:10;;;;;;;10.88;8.20;;;20.50;99.90;;;;;;2629462;54;20160;-79
2021/08/13 06:41:39;;;;;;;8.23;6.50;;;20.30;99.90;;;;;;2630211;54;20193;-78
2021/08/13 06:44:24;;;;;;;7.78;7.07;;;20.30;99.90;;;;;;2630328;54;20130;-78
2021/08/13 06:46:53;;;;;;;9.52;6.68;;;20.50;99.90;;;;;;2630322;47;20149;-78
2021/08/13 06:49:41;;;;;;;9.27;8.32;;;20.70;99.90;;;;;;2630819;54;20145;-79
2021/08/13 06:52:11;;;;;;;8.95;7.22;;;20.90;99.90;;;;;;2631252;47;20216;-82
2021/08/13 06:54:44;;;;;;;11.10;7.88;;;20.90;99.90;;;;;;2631494;54;20133;-81
2021/08/13 06:57:13;;;;;;;8.10;7.40;;;21.30;99.90;;;;;;2639618;46;20233;-82
2021/08/13 06:59:43;;;;;;;12.77;7.28;;;21.30;99.90;;;;;;2629053;54;21312;-82
2021/08/13 07:10:05;;;;;;;10.25;7.50;;;22.00;99.90;;;;;;2624396;47;21111;31
2021/08/13 07:12:41;;;;;;;10.50;7.30;;;22.10;99.90;;;;;;2628869;54;21382;31
2021/08/13 07:20:28;;;;;;;9.50;6.90;;;22.60;99.90;;;;;;2631701;54;20258;-80
2021/08/13 07:22:57;;;;;;;8.93;7.15;;;22.60;99.90;;;;;;2630887;54;20165;-82
2021/08/13 07:28:09;;;;;;;10.00;7.55;;;22.60;99.90;;;;;;2628466;54;20137;-79
2021/08/13 07:36:00;;;;;;;11.75;7.63;;;22.50;99.90;;;;;;2645041;39;20824;-81
2021/08/13 07:41:08;;;;;;;9.90;7.38;;;23.00;99.90;;;;;;2631631;54;20153;-81
2021/08/13 07:49:13;;;;;;;9.23;6.85;;;23.70;99.90;;;;;;2628807;54;20208;-83
2021/08/13 07:51:43;;;;;;;9.70;7.80;;;24.00;99.90;;;;;;2631515;47;20157;-83
2021/08/13 07:54:12;;;;;;;8.50;7.18;;;24.10;99.90;;;;;;2631517;47;20145;-82
2021/08/13 08:02:17;;;;;;;17.65;7.90;;;24.30;99.90;;;;;;2631388;54;20165;-81
2021/08/13 08:04:47;;;;;;;7.15;6.45;;;24.30;99.90;;;;;;2631651;54;20134;-82
2021/08/13 08:07:17;;;;;;;9.00;6.63;;;24.30;99.90;;;;;;2631568;47;20137;-82
2021/08/13 08:09:46;;;;;;;8.80;7.63;;;24.50;99.90;;;;;;2631477;54;20149;-83
2021/08/13 08:14:49;;;;;;;9.05;8.05;;;24.50;99.90;;;;;;2631514;46;20206;-81
2021/08/13 08:17:26;;;;;;;8.65;6.60;;;24.90;99.90;;;;;;2631578;54;20154;-82
2021/08/13 08:20:01;;;;;;;10.02;6.50;;;25.00;99.90;;;;;;2633118;46;20239;-83
2021/08/13 08:30:35;;;;;;;7.25;6.50;;;25.70;99.90;;;;;;2630689;46;20209;-81
2021/08/13 08:33:06;;;;;;;8.55;6.72;;;26.10;99.90;;;;;;2628978;54;20249;-83
2021/08/13 08:46:02;;;;;;;6.35;5.75;;;26.50;99.90;;;;;;2631387;47;20221;-83
2021/08/13 08:48:36;;;;;;;6.07;5.50;;;26.60;99.90;;;;;;2631315;54;20177;-83
2021/08/13 08:51:06;;;;;;;7.32;6.63;;;26.40;99.90;;;;;;2631297;54;20181;-84
2021/08/13 08:53:37;;;;;;;6.85;6.22;;;26.50;99.90;;;;;;2631367;47;20891;-83
2021/08/13 08:56:07;;;;;;;7.13;6.43;;;26.70;99.90;;;;;;2630638;54;20138;-83
2021/08/13 08:58:37;;;;;;;6.32;5.72;;;26.70;99.90;;;;;;2631106;54;20129;-82
2021/08/13 09:01:08;;;;;;;8.95;7.10;;;26.70;99.90;;;;;;2629811;47;20217;-82
2021/08/13 09:03:39;;;;;;;6.82;6.22;;;26.40;99.90;;;;;;2631412;47;20142;-82
2021/08/13 09:06:07;;;;;;;9.20;7.20;;;26.70;99.90;;;;;;2631373;54;20133;-83
2021/08/13 09:08:36;;;;;;;8.70;6.75;;;26.70;99.90;;;;;;2631449;47;20126;-83
2021/08/13 09:11:06;;;;;;;8.63;6.28;;;26.70;99.90;;;;;;2631317;54;20165;-84
2021/08/13 09:13:37;;;;;;;6.22;5.63;;;26.70;99.90;;;;;;2630755;54;20157;-83
2021/08/13 09:16:14;;;;;;;7.72;6.43;;;27.00;99.90;;;;;;2631266;54;20157;-82
2021/08/13 09:18:45;;;;;;;8.10;6.32;;;27.10;99.90;;;;;;2631195;46;20130;-80
2021/08/13 09:21:24;;;;;;;6.30;5.70;;;27.10;99.90;;;;;;2631006;47;20197;-82
2021/08/13 09:23:54;;;;;;;7.05;6.35;;;27.30;99.90;;;;;;2630963;47;20914;-83
2021/08/13 09:26:25;;;;;;;7.18;6.40;;;27.30;99.90;;;;;;2631126;54;20150;-82
2021/08/13 09:29:12;;;;;;;8.38;6.38;;;27.30;99.90;;;;;;2631055;47;20149;-82
2021/08/13 09:31:53;;;;;;;6.25;5.10;;;27.30;99.90;;;;;;2631269;46;20172;-82
2021/08/13 09:34:41;;;;;;;6.20;5.60;;;27.60;99.90;;;;;;2630933;47;20137;-82
2021/08/13 09:37:18;;;;;;;6.72;5.65;;;27.90;99.90;;;;;;2630694;54;20164;-82
2021/08/13 09:39:54;;;;;;;7.07;5.88;;;28.10;99.90;;;;;;2632800;46;20158;-82
2021/08/13 09:42:23;;;;;;;6.85;5.95;;;28.30;99.90;;;;;;2631098;47;20141;-83
2021/08/13 09:45:03;;;;;;;9.05;6.68;;;27.90;99.90;;;;;;2630646;54;20191;-82
2021/08/13 09:47:46;;;;;;;7.88;7.03;;;27.80;99.90;;;;;;2630683;54;20184;-81
2021/08/13 09:50:21;;;;;;;6.38;5.78;;;27.80;99.90;;;;;;2630787;54;20197;-82
2021/08/13 09:53:08;;;;;;;8.25;6.25;;;28.00;99.90;;;;;;2631031;47;20137;-82
2021/08/13 09:55:37;;;;;;;5.82;5.32;;;28.10;99.90;;;;;;2630700;54;20847;-82
2021/08/13 09:58:08;;;;;;;7.13;6.07;;;28.40;99.90;;;;;;2634076;46;20161;-83
2021/08/13 10:00:47;;;;;;;7.65;5.82;;;28.60;99.90;;;;;;2631022;46;21014;-81
2021/08/13 10:03:17;;;;;;;5.82;5.32;;;28.30;99.90;;;;;;2631037;54;20149;-83
2021/08/13 10:06:02;;;;;;;7.95;5.65;;;28.30;99.90;;;;;;2631043;47;20213;-83
2021/08/13 10:08:46;;;;;;;9.10;6.07;;;28.20;99.90;;;;;;2631048;47;20129;-84
2021/08/13 10:11:16;;;;;;;6.70;5.93;;;28.20;99.90;;;;;;2630775;47;20200;-82
2021/08/13 10:13:52;;;;;;;7.78;6.28;;;28.40;99.90;;;;;;2630965;46;20324;-83
2021/08/13 10:16:25;;;;;;;6.07;5.40;;;28.10;99.90;;;;;;2630692;47;20169;-83
2021/08/13 10:18:59;;;;;;;7.43;5.88;;;28.30;99.90;;;;;;2630907;47;20135;-82
2021/08/13 10:21:35;;;;;;;8.25;5.35;;;28.50;99.90;;;;;;2630861;47;20165;-83
2021/08/13 10:24:07;;;;;;;6.38;5.10;;;28.80;99.90;;;;;;2630613;54;20213;-82
2021/08/13 10:26:38;;;;;;;7.93;6.18;;;28.90;99.90;;;;;;2630863;47;20130;-82
2021/08/13 10:29:07;;;;;;;6.40;5.88;;;29.10;99.90;;;;;;2630737;47;20172;-82
2021/08/13 10:31:38;;;;;;;8.50;5.15;;;29.20;99.90;;;;;;2630348;47;20208;-81
2021/08/13 10:34:11;;;;;;;7.07;5.15;;;29.00;99.90;;;;;;2630478;54;20142;-80
2021/08/13 10:36:44;;;;;;;6.03;5.43;;;28.80;99.90;;;;;;2630428;47;20145;-81
2021/08/13 10:39:13;;;;;;;6.30;5.70;;;28.70;99.90;;;;;;2630919;54;20136;-82
2021/08/13 10:41:47;;;;;;;7.50;5.47;;;28.60;99.90;;;;;;2630586;47;20221;-82
2021/08/13 10:44:21;;;;;;;7.35;5.47;;;28.60;99.90;;;;;;2630514;47;20141;-82
2021/08/13 10:46:53;;;;;;;6.35;5.45;;;28.30;99.90;;;;;;2630928;47;20141;-83
2021/08/13 10:49:23;;;;;;;11.40;5.97;;;28.40;99.90;;;;;;2630644;47;20165;-83
2021/08/13 10:52:06;;;;;;;6.78;5.55;;;28.70;99.90;;;;;;2640533;39;21237;-83
2021/08/13 10:54:40;;;;;;;10.45;6.05;;;29.00;99.90;;;;;;2629171;47;20280;-82
2021/08/13 10:57:10;;;;;;;6.38;5.72;;;29.30;99.90;;;;;;2630853;47;20145;-82
2021/08/13 10:59:57;;;;;;;10.18;5.57;;;29.20;99.90;;;;;;2629964;47;20213;-83
2021/08/13 11:02:33;;;;;;;12.60;5.80;;;29.30;99.90;;;;;;2627886;47;20229;-81
2021/08/13 11:05:05;;;;;;;6.43;5.82;;;29.40;99.90;;;;;;2627590;54;20240;-83
2021/08/13 11:08:01;;;;;;;6.85;6.15;;;29.60;99.90;;;;;;2630731;47;20154;-81
2021/08/13 11:10:56;;;;;;;6.88;6.28;;;29.60;99.90;;;;;;2630700;47;20165;-82
2021/08/13 11:13:27;;;;;;;10.95;6.65;;;29.50;99.90;;;;;;2630653;47;20133;-83
2021/08/13 11:16:03;;;;;;;7.43;6.20;;;29.60;99.90;;;;;;2631083;46;20151;-79
2021/08/13 11:29:47;;;;;;;7.38;6.47;;;30.00;99.90;;;;;;2630448;54;20146;-84
2021/08/13 11:32:27;;;;;;;7.07;6.47;;;30.00;99.90;;;;;;2626971;47;20200;-81
2021/08/13 11:34:58;;;;;;;5.97;5.47;;;30.20;99.90;;;;;;2628052;54;20256;-81
2021/08/13 11:37:49;;;;;;;6.68;5.57;;;29.80;99.90;;;;;;2631420;47;20962;-82
2021/08/13 11:40:50;;;;;;;6.65;5.90;;;29.40;99.90;;;;;;2630428;47;20188;-82
2021/08/13 11:43:22;;;;;;;8.35;5.72;;;29.60;99.90;;;;;;2630984;47;20203;-81
2021/08/13 11:45:53;;;;;;;5.97;5.25;;;29.70;99.90;;;;;;2624601;47;20256;-82
2021/08/13 11:48:32;;;;;;;6.13;5.53;;;29.70;99.90;;;;;;2624549;31;21256;-80
2021/08/13 11:53:36;;;;;;;7.68;5.50;;;30.00;99.90;;;;;;2632697;39;21188;31
2021/08/13 12:01:57;;;;;;;6.47;5.88;;;30.90;99.90;;;;;;2625733;54;20208;-79
2021/08/13 12:04:28;;;;;;;7.25;6.55;;;31.20;99.90;;;;;;2630392;47;20153;-81
2021/08/13 12:07:16;;;;;;;9.27;6.43;;;31.30;99.90;;;;;;2631332;47;20266;-80
2021/08/13 12:09:54;;;;;;;8.20;6.35;;;31.40;99.90;;;;;;2631216;47;20146;-81
2021/08/13 12:12:31;;;;;;;6.38;5.88;;;30.90;99.90;;;;;;2631211;46;20169;-81
2021/08/13 12:17:54;;;;;;;6.25;5.57;;;30.10;99.90;;;;;;2631422;54;20157;-82
2021/08/13 12:20:23;;;;;;;8.30;6.32;;;29.70;99.90;;;;;;2631130;47;20180;-83
2021/08/13 12:23:00;;;;;;;10.25;7.70;;;29.80;99.90;;;;;;2631111;47;20834;-83
2021/08/13 12:25:37;;;;;;;8.38;6.93;;;30.10;99.90;;;;;;2631026;47;20129;-83
2021/08/13 12:28:07;;;;;;;7.03;6.38;;;30.40;99.90;;;;;;2631069;47;20133;-82
2021/08/13 12:30:37;;;;;;;7.72;6.78;;;30.50;99.90;;;;;;2631026;47;20229;-82
2021/08/13 12:33:08;;;;;;;9.82;6.47;;;30.50;99.90;;;;;;2642753;39;20980;-81
2021/08/13 12:35:43;;;;;;;7.05;6.45;;;30.40;99.90;;;;;;2630999;47;20126;-81
2021/08/13 12:38:12;;;;;;;7.05;6.35;;;30.40;99.90;;;;;;2631162;47;20129;-81
2021/08/13 12:48:48;;;;;;;8.77;6.47;;;30.60;99.90;;;;;;2631455;54;21077;-79
2021/08/13 12:51:29;;;;;;;7.13;6.43;;;30.60;99.90;;;;;;2631883;39;20883;-80
2021/08/13 12:56:41;;;;;;;9.77;6.10;;;30.40;99.90;;;;;;2627311;54;20285;-80
2021/08/13 12:59:13;;;;;;;28.83;6.57;;;30.20;99.90;;;;;;2623732;47;20197;-81
2021/08/13 13:01:57;;;;;;;11.00;7.45;;;30.20;99.90;;;;;;2630977;54;20168;-79
2021/08/13 13:04:41;;;;;;;7.68;6.95;;;30.40;99.90;;;;;;2630989;54;20173;-81
2021/08/13 13:10:01;;;;;;;10.18;6.93;;;30.70;99.90;;;;;;2643247;39;20193;-81
2021/08/13 13:12:34;;;;;;;8.18;6.72;;;30.40;99.90;;;;;;2630875;46;20193;-81
2021/08/13 13:15:07;;;;;;;12.45;6.82;;;30.60;99.90;;;;;;2630566;47;20165;-81
2021/08/13 13:17:54;;;;;;;7.47;6.85;;;30.40;99.90;;;;;;2631135;47;20149;-82
2021/08/13 13:20:35;;;;;;;10.80;7.38;;;30.20;99.90;;;;;;2631255;46;20156;-83
2021/08/13 13:23:14;;;;;;;8.40;7.50;;;30.10;99.90;;;;;;2631054;54;20129;-82
2021/08/13 13:26:13;;;;;;;12.02;7.30;;;30.30;99.90;;;;;;2631094;54;20173;-83
2021/08/13 13:29:10;;;;;;;6.75;6.10;;;30.80;99.90;;;;;;2631296;54;20137;-82
2021/08/13 13:32:00;;;;;;;10.85;7.72;;;30.80;99.90;;;;;;2629542;47;20212;-82
2021/08/13 13:34:58;;;;;;;8.40;7.15;;;31.30;99.90;;;;;;2631235;54;20145;-82
2021/08/13 13:37:38;;;;;;;9.80;7.47;;;31.60;99.90;;;;;;2631091;47;20193;-83
2021/08/13 13:42:56;;;;;;;10.93;7.80;;;31.40;99.90;;;;;;2631260;54;20153;-82
2021/08/13 13:45:27;;;;;;;8.90;6.95;;;31.50;99.90;;;;;;2630884;47;20141;-83
2021/08/13 13:47:57;;;;;;;11.55;7.30;;;31.20;99.90;;;;;;2628483;47;20208;-81
2021/08/13 13:50:28;;;;;;;9.02;7.68;;;31.00;99.90;;;;;;2631040;54;20137;-80
2021/08/13 13:53:00;;;;;;;9.25;7.70;;;30.80;99.90;;;;;;2619411;54;20331;-81
2021/08/13 13:55:30;;;;;;;14.70;8.18;;;31.40;99.90;;;;;;2631015;47;20162;-83
2021/08/13 13:57:59;;;;;;;9.65;7.82;;;31.30;99.90;;;;;;2630925;54;20130;-83
2021/08/13 14:03:13;;;;;;;9.43;7.78;;;31.10;99.90;;;;;;2631292;54;20908;-82
2021/08/13 14:05:44;;;;;;;9.43;7.18;;;31.20;99.90;;;;;;2635123;46;20892;-82
2021/08/13 14:13:56;;;;;;;11.23;8.27;;;30.00;99.90;;;;;;2614562;54;21245;-81
2021/08/13 14:19:14;;;;;;;11.38;7.80;;;30.00;99.90;;;;;;2630324;54;20228;-82
2021/08/13 14:21:44;;;;;;;9.05;8.10;;;29.80;99.90;;;;;;2628686;54;20211;-82
2021/08/13 14:26:49;;;;;;;10.05;9.02;;;30.50;99.90;;;;;;2631308;54;20137;-82
2021/08/13 14:31:56;;;;;;;9.25;8.30;;;31.30;99.90;;;;;;2630334;47;20299;-81
2021/08/13 14:34:26;;;;;;;16.40;8.48;;;31.30;99.90;;;;;;2630431;54;21483;-82
2021/08/13 14:36:55;;;;;;;11.00;8.00;;;30.80;99.90;;;;;;2630619;47;20155;-82
2021/08/13 14:39:24;;;;;;;9.02;8.13;;;30.40;99.90;;;;;;2630789;47;20178;-81
2021/08/13 14:41:53;;;;;;;10.27;8.65;;;29.80;99.90;;;;;;2630729;54;20173;-82
2021/08/13 14:44:22;;;;;;;8.98;8.10;;;29.90;99.90;;;;;;2627279;54;20200;-78
2021/08/13 14:46:51;;;;;;;9.30;8.25;;;29.70;99.90;;;;;;2648527;39;20409;-79
2021/08/13 14:49:21;;;;;;;9.52;8.60;;;29.10;99.90;;;;;;2630258;47;20671;-78
2021/08/13 14:51:50;;;;;;;10.10;8.95;;;29.10;99.90;;;;;;2630344;47;20193;-74
2021/08/13 14:54:19;;;;;;;9.27;8.32;;;29.20;99.90;;;;;;2629848;47;20189;-75
2021/08/13 14:56:48;;;;;;;10.75;8.40;;;29.30;99.90;;;;;;2629729;47;20145;-79
2021/08/13 14:59:17;;;;;;;10.93;8.70;;;29.30;99.90;;;;;;2630142;47;20675;-77
2021/08/13 15:01:46;;;;;;;9.65;8.57;;;29.30;99.90;;;;;;2629876;54;20165;-79
2021/08/13 15:04:16;;;;;;;11.10;9.93;;;29.60;99.90;;;;;;2629569;54;20173;-79